Time;durP1;ratioP1;P1;durP2;ratioP2;P2;SDS_P1;SDS_P2;PMS_P1;PMS_P2;Temp;Humidity;BMP_temperature;BMP_pressure;BME280_temperature;BME280_humidity;BME280_pressure;Samples;Min_cycle;Max_cycle;Signal;HPM_P1;HPM_P2
2022/01/27 00:00:43;;;;;;;;;16.25;15.75;;;;;19.59;31.95;102947.22;5074257;28;51309;-45
2022/01/27 00:03:25;;;;;;;;;18.50;15.00;;;;;19.57;31.90;102941.88;5079190;28;51267;-45
2022/01/27 00:06:05;;;;;;;;;20.50;16.25;;;;;19.56;31.83;102942.91;5072915;28;51087;-47
2022/01/27 00:08:40;;;;;;;;;19.00;16.00;;;;;19.54;31.94;102942.19;5061280;28;51185;-49
2022/01/27 00:11:16;;;;;;;;;16.50;14.25;;;;;19.53;31.81;102937.72;5061500;28;51138;-46
2022/01/27 00:13:56;;;;;;;;;19.25;18.00;;;;;19.50;31.95;102938.06;5060111;28;51202;-46
2022/01/27 00:16:26;;;;;;;;;16.50;16.00;;;;;19.49;31.95;102941.84;5060614;28;50905;-46
2022/01/27 00:18:52;;;;;;;;;20.00;18.25;;;;;19.48;32.14;102928.22;5077797;28;51922;-46
2022/01/27 00:21:21;;;;;;;;;24.50;16.75;;;;;19.47;31.89;102943.88;5065614;28;51395;-48
2022/01/27 00:23:47;;;;;;;;;19.25;14.75;;;;;19.45;31.82;102932.19;5064523;27;51095;-47
2022/01/27 00:26:14;;;;;;;;;15.75;14.25;;;;;19.45;31.89;102925.81;5066983;28;50923;-47
2022/01/27 00:28:40;;;;;;;;;16.50;15.00;;;;;19.42;31.91;102923.41;5092452;27;54341;-47
2022/01/27 00:31:06;;;;;;;;;16.00;16.00;;;;;19.42;31.90;102920.66;5069651;28;51769;-47
2022/01/27 00:33:32;;;;;;;;;18.00;15.00;;;;;19.41;31.87;102916.19;5069384;28;50944;-47
2022/01/27 00:35:57;;;;;;;;;17.75;14.75;;;;;19.41;31.88;102917.06;5060097;28;50935;-51
2022/01/27 00:38:23;;;;;;;;;16.50;15.25;;;;;19.40;31.70;102917.22;5059823;28;51652;-47
2022/01/27 00:40:48;;;;;;;;;17.25;14.75;;;;;19.39;32.29;102913.63;5059831;28;50988;-45
2022/01/27 00:43:14;;;;;;;;;17.50;15.75;;;;;19.38;32.09;102913.75;5059698;28;50956;-46
2022/01/27 00:45:39;;;;;;;;;15.50;15.00;;;;;19.36;31.90;102899.34;5060882;28;51309;-45
2022/01/27 00:48:05;;;;;;;;;20.00;16.75;;;;;19.34;32.02;102905.00;5059633;28;51826;-50
2022/01/27 00:50:33;;;;;;;;;15.50;15.00;;;;;19.34;31.90;102902.25;5076741;28;50841;-47
2022/01/27 00:53:01;;;;;;;;;14.00;12.50;;;;;19.33;31.92;102903.28;5079449;28;51026;-47
2022/01/27 00:55:30;;;;;;;;;15.50;13.25;;;;;19.31;32.03;102895.22;5078109;27;51163;-48
2022/01/27 01:00:35;;;;;;;;;16.50;13.75;;;;;19.30;32.05;102881.63;5059603;28;51005;-46
2022/01/27 01:03:47;;;;;;;;;15.00;15.00;;;;;19.28;32.00;102879.06;5061804;28;51326;-47
2022/01/27 01:16:15;;;;;;;;;18.75;15.50;;;;;19.22;31.89;102879.69;5059535;28;51002;-46
2022/01/27 01:18:52;;;;;;;;;18.25;15.50;;;;;19.22;31.95;102876.09;5059947;28;52744;-48
2022/01/27 01:21:54;;;;;;;;;19.00;16.75;;;;;19.21;32.04;102878.00;5064806;28;51113;-49
2022/01/27 01:32:17;;;;;;;;;18.00;17.50;;;;;19.17;32.00;102864.72;5059332;28;51032;-47
2022/01/27 01:34:46;;;;;;;;;21.00;19.75;;;;;19.15;32.17;102869.53;5078830;27;51136;-45
2022/01/27 01:37:12;;;;;;;;;15.75;15.25;;;;;19.15;32.11;102866.78;5078360;28;51256;-45
2022/01/27 01:39:37;;;;;;;;;17.50;14.50;;;;;19.14;32.02;102854.06;5077374;28;52191;-49
2022/01/27 01:42:06;;;;;;;;;18.00;16.50;;;;;19.13;31.89;102853.22;5077038;28;51074;-45
2022/01/27 01:44:32;;;;;;;;;20.75;16.00;;;;;19.12;32.05;102857.00;5077103;27;51253;-46
2022/01/27 01:46:58;;;;;;;;;14.50;12.50;;;;;19.10;32.22;102844.47;5077449;28;50992;-46
2022/01/27 01:49:26;;;;;;;;;20.50;18.25;;;;;19.10;32.13;102845.31;5071984;28;52919;-49
2022/01/27 01:51:54;;;;;;;;;21.25;15.00;;;;;19.09;31.94;102851.84;5058865;28;51114;-46
2022/01/27 01:54:19;;;;;;;;;19.25;17.25;;;;;19.08;32.08;102846.50;5078194;28;50958;-47
2022/01/27 01:56:45;;;;;;;;;13.25;11.50;;;;;19.07;32.03;102844.75;5073398;28;50998;-46
2022/01/27 01:59:11;;;;;;;;;21.25;15.75;;;;;19.06;32.29;102845.78;5058347;28;51698;-48
2022/01/27 02:01:37;;;;;;;;;19.50;16.25;;;;;19.06;32.20;102846.66;5071306;28;51112;-47
2022/01/27 02:04:08;;;;;;;;;17.75;17.75;;;;;19.04;32.34;102835.84;5070358;27;51095;-45
2022/01/27 02:06:49;;;;;;;;;19.00;15.50;;;;;19.04;32.29;102835.84;5067248;28;50937;-46
2022/01/27 02:19:59;;;;;;;;;15.25;10.00;;;;;18.99;32.53;102830.00;5077556;28;51031;-46
2022/01/27 02:22:25;;;;;;;;;20.25;17.75;;;;;18.98;32.25;102836.50;5064870;28;51145;-48
2022/01/27 02:24:51;;;;;;;;;22.75;18.75;;;;;18.98;32.28;102831.00;5074775;27;51104;-46
2022/01/27 02:27:18;;;;;;;;;21.00;18.25;;;;;18.97;32.29;102829.31;5072961;28;51149;-46
2022/01/27 02:29:47;;;;;;;;;20.25;17.25;;;;;18.96;32.31;102829.44;5070750;28;52897;-46
2022/01/27 02:32:14;;;;;;;;;16.75;14.50;;;;;18.95;32.25;102820.34;5073836;28;51110;-47
2022/01/27 02:34:41;;;;;;;;;31.00;22.25;;;;;18.94;32.49;102826.00;5065331;28;51096;-46
2022/01/27 02:37:09;;;;;;;;;18.50;18.50;;;;;18.94;32.41;102818.63;5064853;28;51044;-47
2022/01/27 02:39:35;;;;;;;;;23.00;17.25;;;;;18.93;32.14;102821.53;5077381;28;51757;-47
2022/01/27 02:42:03;;;;;;;;;26.25;18.25;;;;;18.92;32.34;102817.06;5062054;28;51065;-47
2022/01/27 02:44:32;;;;;;;;;24.00;19.00;;;;;18.91;32.27;102816.22;5059827;28;52362;-45
2022/01/27 02:46:57;;;;;;;;;25.00;19.00;;;;;18.89;32.45;102815.53;5067111;28;51045;-49
2022/01/27 02:49:23;;;;;;;;;22.00;20.25;;;;;18.88;32.46;102797.31;5069219;27;53445;-46
2022/01/27 02:51:48;;;;;;;;;23.75;19.00;;;;;18.88;32.59;102805.56;5064042;28;51035;-47
2022/01/27 02:54:13;;;;;;;;;21.50;19.00;;;;;18.88;32.33;102805.56;5073602;27;51082;-46
2022/01/27 02:56:44;;;;;;;;;22.75;20.50;;;;;18.87;32.59;102803.00;5074705;28;51042;-48
2022/01/27 02:59:10;;;;;;;;;28.25;21.00;;;;;18.86;32.35;102802.13;5075690;28;51117;-50
2022/01/27 03:01:36;;;;;;;;;22.50;20.00;;;;;18.86;32.44;102801.25;5057901;28;51163;-48
2022/01/27 03:04:01;;;;;;;;;24.25;21.75;;;;;18.84;32.24;102801.41;5057352;28;51011;-49
2022/01/27 03:06:26;;;;;;;;;18.50;18.00;;;;;18.83;32.49;102802.44;5061350;28;51133;-47
2022/01/27 03:08:52;;;;;;;;;22.25;17.25;;;;;18.82;32.30;102800.72;5062178;28;51700;-45
2022/01/27 03:11:32;;;;;;;;;25.75;20.00;;;;;18.82;32.29;102794.38;5073570;28;51016;-46
2022/01/27 03:13:57;;;;;;;;;23.00;18.00;;;;;18.80;32.63;102786.31;5061598;28;51078;-46
2022/01/27 03:16:22;;;;;;;;;24.00;20.25;;;;;18.80;32.48;102794.53;5067623;28;51107;-46
2022/01/27 03:18:48;;;;;;;;;20.00;16.50;;;;;18.81;32.27;102787.16;5066381;28;50918;-49
2022/01/27 03:21:16;;;;;;;;;20.25;18.00;;;;;18.80;32.31;102785.44;5070033;28;51054;-50
2022/01/27 03:23:41;;;;;;;;;24.25;22.75;;;;;18.79;32.38;102779.09;5067588;28;51146;-46
2022/01/27 03:26:06;;;;;;;;;20.00;15.00;;;;;18.78;32.46;102790.25;5066360;28;50983;-47
2022/01/27 03:28:32;;;;;;;;;22.25;19.25;;;;;18.77;32.57;102785.78;5056793;28;51613;-48
2022/01/27 03:30:58;;;;;;;;;23.75;21.00;;;;;18.75;32.41;102781.28;5062468;28;50976;-45
2022/01/27 03:33:23;;;;;;;;;25.75;19.50;;;;;18.75;32.43;102785.91;5067905;28;51138;-45
2022/01/27 03:35:49;;;;;;;;;22.00;21.00;;;;;18.74;32.63;102785.06;5088254;27;51175;-45
2022/01/27 03:38:14;;;;;;;;;20.75;18.50;;;;;18.73;32.52;102793.47;5067556;27;51663;-45
2022/01/27 03:40:39;;;;;;;;;24.25;22.50;;;;;18.73;32.69;102791.56;5067578;28;50964;-47
2022/01/27 03:43:08;;;;;;;;;16.25;15.50;;;;;18.73;32.21;102796.22;5065828;28;51052;-51
2022/01/27 03:45:34;;;;;;;;;21.00;18.25;;;;;18.72;32.35;102789.00;5062285;28;51306;-48
2022/01/27 03:47:59;;;;;;;;;27.25;20.75;;;;;18.71;32.53;102790.03;5056868;28;52090;-48
2022/01/27 03:50:25;;;;;;;;;21.25;17.25;;;;;18.71;32.50;102790.88;5056954;28;51000;-50
2022/01/27 03:52:50;;;;;;;;;26.00;20.75;;;;;18.70;32.56;102791.06;5058180;28;51065;-46
2022/01/27 03:55:16;;;;;;;;;20.00;16.75;;;;;18.70;32.46;102785.56;5069558;28;50992;-48
2022/01/27 03:57:41;;;;;;;;;22.50;21.00;;;;;18.70;32.55;102785.56;5076378;28;51318;-45
2022/01/27 04:00:08;;;;;;;;;19.25;17.00;;;;;18.69;32.31;102783.84;5075934;28;51852;-48
2022/01/27 04:02:37;;;;;;;;;28.75;25.00;;;;;18.68;32.44;102791.22;5074989;28;51130;-45
2022/01/27 04:05:02;;;;;;;;;22.75;20.00;;;;;18.67;32.60;102783.16;5076596;27;51306;-47
2022/01/27 04:07:28;;;;;;;;;23.00;18.50;;;;;18.66;32.68;102782.28;5059472;28;50990;-48
2022/01/27 04:09:53;;;;;;;;;23.00;20.25;;;;;18.67;32.47;102783.16;5056803;28;51075;-47
2022/01/27 04:12:19;;;;;;;;;21.25;18.00;;;;;18.66;32.69;102778.69;5057610;28;51298;-48
2022/01/27 04:14:44;;;;;;;;;18.25;17.25;;;;;18.64;32.78;102784.31;5056890;28;50964;-47
2022/01/27 04:17:09;;;;;;;;;23.25;18.50;;;;;18.63;32.66;102778.97;5058390;28;51584;-45
2022/01/27 04:19:35;;;;;;;;;26.50;21.25;;;;;18.64;32.57;102788.91;5063140;28;50890;-48
2022/01/27 04:22:00;;;;;;;;;18.25;18.00;;;;;18.63;32.74;102781.72;5089103;27;50924;-47
2022/01/27 04:24:26;;;;;;;;;20.25;17.25;;;;;18.62;32.74;102777.25;5067884;28;51313;-46
2022/01/27 04:26:59;;;;;;;;;22.75;19.00;;;;;18.60;32.78;102780.16;5071774;28;52291;-49
2022/01/27 04:29:25;;;;;;;;;23.25;17.25;;;;;18.60;32.49;102785.66;5064440;28;51398;-47
2022/01/27 04:31:51;;;;;;;;;25.00;17.25;;;;;18.60;32.76;102779.28;5074462;28;51177;-46
2022/01/27 04:34:17;;;;;;;;;20.50;20.00;;;;;18.59;32.41;102781.19;5076220;27;51242;-46
2022/01/27 04:36:44;;;;;;;;;22.25;16.75;;;;;18.60;32.85;102782.03;5073681;28;51675;-45
2022/01/27 04:39:18;;;;;;;;;21.00;19.25;;;;;18.58;32.53;102773.13;5076064;28;50896;-47
2022/01/27 04:41:51;;;;;;;;;23.00;19.75;;;;;18.58;32.67;102789.59;5073146;28;51337;-48
2022/01/27 04:47:30;;;;;;;;;19.25;14.50;;;;;18.56;32.54;102794.38;5060003;28;51111;-45
2022/01/27 04:49:43;;;;;;;;;27.00;22.25;;;;;18.56;33.03;102786.16;5077179;27;51553;-47
2022/01/27 04:52:09;;;;;;;;;17.50;17.00;;;;;18.54;32.58;102783.53;5070246;28;51267;-49
2022/01/27 04:54:52;;;;;;;;;23.50;17.25;;;;;18.53;32.80;102781.81;5059900;28;51153;-45
2022/01/27 04:57:17;;;;;;;;;22.75;19.50;;;;;18.53;32.89;102781.81;5059200;28;52733;-45
2022/01/27 04:59:43;;;;;;;;;20.50;18.50;;;;;18.52;32.69;102776.50;5059551;28;50862;-47
2022/01/27 05:02:20;;;;;;;;;18.75;15.75;;;;;18.51;32.87;102775.63;5061020;27;51404;-48
2022/01/27 05:04:49;;;;;;;;;22.75;21.25;;;;;18.51;32.56;102770.16;5073402;27;51121;-45
2022/01/27 05:07:15;;;;;;;;;20.00;18.50;;;;;18.50;32.72;102779.41;5078643;28;51814;-51
2022/01/27 05:09:50;;;;;;;;;27.50;22.50;;;;;18.50;32.84;102773.06;5068098;28;51331;-48
2022/01/27 05:12:19;;;;;;;;;23.00;18.75;;;;;18.50;32.90;102770.31;5059398;28;51110;-47
2022/01/27 05:14:44;;;;;;;;;20.25;18.00;;;;;18.49;32.87;102776.84;5060388;28;51035;-46
2022/01/27 05:17:10;;;;;;;;;19.25;18.25;;;;;18.47;32.90;102766.03;5070305;28;51577;-46
2022/01/27 05:19:35;;;;;;;;;24.00;20.25;;;;;18.47;32.72;102771.50;5059946;28;50985;-48
2022/01/27 05:22:01;;;;;;;;;24.75;17.75;;;;;18.46;32.65;102772.53;5067431;28;51178;-48
2022/01/27 05:24:26;;;;;;;;;24.00;21.00;;;;;18.45;32.49;102771.69;5059141;28;51199;-49
2022/01/27 05:26:51;;;;;;;;;19.75;15.00;;;;;18.45;32.67;102771.69;5073996;28;51867;-49
2022/01/27 05:29:17;;;;;;;;;23.75;18.75;;;;;18.45;32.73;102759.84;5074954;28;51205;-46
2022/01/27 05:31:46;;;;;;;;;17.50;17.50;;;;;18.43;32.41;102754.50;5069747;28;51231;-46
2022/01/27 05:34:11;;;;;;;;;22.75;19.75;;;;;18.44;32.53;102760.84;5071327;27;51127;-45
2022/01/27 05:36:36;;;;;;;;;19.25;16.25;;;;;18.43;32.95;102759.97;5078502;27;50994;-45
2022/01/27 05:39:04;;;;;;;;;22.50;16.00;;;;;18.42;32.65;102763.75;5077353;28;51034;-45
2022/01/27 05:41:29;;;;;;;;;16.25;15.50;;;;;18.41;32.72;102767.53;5078653;28;50972;-47
2022/01/27 05:43:54;;;;;;;;;18.75;17.50;;;;;18.40;32.93;102768.53;5077149;27;50961;-47
2022/01/27 05:46:20;;;;;;;;;23.00;15.00;;;;;18.40;32.70;102756.72;5061740;28;50975;-47
2022/01/27 05:48:45;;;;;;;;;16.75;15.75;;;;;18.40;33.00;102762.19;5091325;27;51034;-50
2022/01/27 05:51:12;;;;;;;;;16.25;14.50;;;;;18.40;32.81;102753.97;5071037;28;50948;-46
2022/01/27 05:53:38;;;;;;;;;26.00;22.25;;;;;18.40;32.60;102768.53;5078794;28;51245;-48
2022/01/27 05:56:04;;;;;;;;;37.50;32.25;;;;;18.36;31.89;102758.06;5076634;28;51110;-47
2022/01/27 05:58:29;;;;;;;;;40.50;34.25;;;;;18.24;31.75;102743.78;5058779;28;51075;-49
2022/01/27 06:00:54;;;;;;;;;40.25;33.00;;;;;18.17;31.89;102753.66;5058714;28;51044;-47
2022/01/27 06:03:20;;;;;;;;;39.25;32.25;;;;;18.17;31.59;102751.78;5072713;28;50900;-46
2022/01/27 06:05:45;;;;;;;;;30.25;25.50;;;;;18.23;31.71;102755.75;5059115;28;52224;-48
2022/01/27 06:08:11;;;;;;;;;33.00;23.75;;;;;18.32;31.87;102753.91;5068986;28;51091;-46
2022/01/27 06:10:36;;;;;;;;;28.00;26.50;;;;;18.38;31.82;102756.88;5075710;28;51382;-46
2022/01/27 06:13:02;;;;;;;;;27.75;22.25;;;;;18.49;31.85;102763.13;5077452;28;51127;-47
2022/01/27 06:15:28;;;;;;;;;23.75;19.50;;;;;18.60;31.88;102773.81;5058458;28;50970;-47
2022/01/27 06:17:54;;;;;;;;;24.50;22.50;;;;;18.68;32.19;102771.16;5059861;28;51531;-49
2022/01/27 06:20:20;;;;;;;;;21.75;17.75;;;;;18.75;31.99;102773.03;5075016;28;51143;-45
2022/01/27 06:22:46;;;;;;;;;24.00;20.25;;;;;18.84;31.85;102773.94;5066877;28;51110;-46
2022/01/27 06:25:14;;;;;;;;;19.00;16.50;;;;;18.94;31.69;102779.31;5064176;28;52100;-49
2022/01/27 06:27:40;;;;;;;;;23.25;18.00;;;;;19.00;32.12;102782.28;5065905;28;51471;-47
2022/01/27 06:30:08;;;;;;;;;18.00;15.75;;;;;19.08;31.91;102780.59;5059754;28;50976;-46
2022/01/27 06:32:35;;;;;;;;;19.50;15.25;;;;;19.15;31.88;102776.13;5076526;28;51789;-48
2022/01/27 06:35:03;;;;;;;;;18.50;17.50;;;;;19.23;31.65;102778.91;5057737;28;51803;-51
2022/01/27 06:37:32;;;;;;;;;17.75;15.75;;;;;19.29;31.97;102784.59;5059385;28;51431;-46
2022/01/27 06:39:58;;;;;;;;;18.00;16.00;;;;;19.38;31.69;102788.19;5056948;28;50947;-48
2022/01/27 06:42:23;;;;;;;;;14.50;13.25;;;;;19.44;31.79;102784.78;5059229;28;51330;-48
2022/01/27 06:44:49;;;;;;;;;18.50;14.25;;;;;19.51;31.95;102780.34;5063485;28;52077;-45
2022/01/27 06:47:14;;;;;;;;;19.50;16.25;;;;;19.57;32.13;102779.69;5074697;28;51152;-48
2022/01/27 06:49:39;;;;;;;;;15.00;14.50;;;;;19.64;32.18;102776.28;5067852;28;51077;-45
2022/01/27 06:52:06;;;;;;;;;14.25;14.25;;;;;19.71;32.07;102774.56;5090547;27;51021;-47
2022/01/27 06:54:32;;;;;;;;;12.25;10.50;;;;;19.79;31.75;102782.78;5057871;28;52749;-50
2022/01/27 06:56:57;;;;;;;;;11.50;10.50;;;;;19.86;32.18;102786.59;5075788;27;50952;-47
2022/01/27 06:59:23;;;;;;;;;13.50;11.50;;;;;19.92;32.09;102791.41;5075938;27;51544;-47
2022/01/27 07:01:48;;;;;;;;;13.75;11.25;;;;;19.98;32.10;102781.59;5075105;28;51379;-48
2022/01/27 07:04:14;;;;;;;;;11.50;10.25;;;;;20.03;32.04;102780.06;5067845;28;51060;-46
2022/01/27 07:06:39;;;;;;;;;11.50;11.50;;;;;20.10;32.07;102782.97;5057821;28;51447;-51
2022/01/27 07:09:05;;;;;;;;;12.00;12.00;;;;;20.14;31.97;102792.59;5090197;27;51045;-48
2022/01/27 07:11:31;;;;;;;;;11.00;11.00;;;;;20.20;31.92;102805.66;5059628;28;50996;-45
2022/01/27 07:13:56;;;;;;;;;10.50;8.50;;;;;20.26;31.96;102804.13;5058954;28;51778;-49
2022/01/27 07:16:22;;;;;;;;;13.25;11.25;;;;;20.31;31.91;102804.44;5057434;28;51024;-47
2022/01/27 07:18:47;;;;;;;;;13.00;11.25;;;;;20.35;32.02;102801.19;5057450;28;51146;-48
2022/01/27 07:21:12;;;;;;;;;17.50;12.00;;;;;20.39;31.81;102797.03;5057440;28;51441;-45
2022/01/27 07:23:38;;;;;;;;;17.50;13.75;;;;;20.41;31.91;102794.97;5062090;28;51160;-46
2022/01/27 07:26:04;;;;;;;;;12.00;11.00;;;;;20.41;31.93;102785.84;5059281;28;51096;-50
2022/01/27 07:28:29;;;;;;;;;14.25;12.00;;;;;20.39;32.28;102796.19;5062842;27;50980;-45
2022/01/27 07:30:54;;;;;;;;;16.00;14.50;;;;;20.40;32.37;102797.88;5058282;28;50980;-45
2022/01/27 07:33:20;;;;;;;;;13.50;12.00;;;;;20.42;32.35;102784.81;5090191;27;53756;-48
2022/01/27 07:35:45;;;;;;;;;12.25;10.50;;;;;20.50;32.45;102786.72;5071898;27;50936;-45
2022/01/27 07:38:11;;;;;;;;;14.50;10.25;;;;;20.56;32.62;102797.91;5061142;28;51438;-48
2022/01/27 07:40:36;;;;;;;;;14.00;12.25;;;;;20.64;32.82;102783.25;5055517;28;51186;-47
2022/01/27 07:43:02;;;;;;;;;12.25;10.25;;;;;20.70;32.45;102777.88;5056202;28;52480;-45
2022/01/27 07:45:27;;;;;;;;;15.00;11.00;;;;;20.76;32.56;102787.34;5056983;28;51072;-46
2022/01/27 07:47:53;;;;;;;;;12.75;9.75;;;;;20.80;31.93;102772.16;5055803;28;50970;-45
2022/01/27 07:50:19;;;;;;;;;12.00;12.00;;;;;20.82;31.77;102792.13;5057308;28;50979;-46
2022/01/27 07:52:45;;;;;;;;;12.25;10.75;;;;;20.81;32.04;102793.16;5056688;28;51632;-45
2022/01/27 07:55:12;;;;;;;;;22.50;17.75;;;;;20.77;31.66;102797.31;5056949;28;50997;-46
2022/01/27 07:57:37;;;;;;;;;24.75;18.75;;;;;20.70;31.75;102788.91;5056594;28;51057;-48
2022/01/27 08:00:05;;;;;;;;;25.75;20.25;;;;;20.63;31.73;102793.38;5056878;28;51370;-47
2022/01/27 08:02:30;;;;;;;;;27.75;22.75;;;;;20.54;32.08;102797.22;5056463;28;51105;-50
2022/01/27 08:04:56;;;;;;;;;18.75;17.25;;;;;20.45;32.07;102790.88;5056730;28;51102;-50
2022/01/27 08:07:21;;;;;;;;;27.50;20.25;;;;;20.39;31.97;102794.28;5056873;28;50941;-47
2022/01/27 08:09:48;;;;;;;;;20.25;16.50;;;;;20.33;32.12;102799.66;5056890;28;51087;-45
2022/01/27 08:12:14;;;;;;;;;29.75;23.25;;;;;20.28;31.92;102799.28;5056495;28;51993;-46
2022/01/27 08:14:40;;;;;;;;;18.25;15.00;;;;;20.20;32.08;102797.41;5056526;28;51369;-46
2022/01/27 08:17:05;;;;;;;;;20.50;18.00;;;;;20.15;32.02;102802.59;5056762;28;50942;-47
2022/01/27 08:19:31;;;;;;;;;13.00;12.00;;;;;20.08;31.82;102799.66;5056247;28;50963;-45
2022/01/27 08:21:56;;;;;;;;;16.50;15.50;;;;;20.04;32.04;102791.94;5057014;28;51771;-48
2022/01/27 08:24:22;;;;;;;;;19.25;19.25;;;;;20.00;32.24;102804.28;5058788;28;50980;-46
2022/01/27 08:26:49;;;;;;;;;17.75;14.75;;;;;19.95;32.12;102802.06;5101115;27;50896;-48
2022/01/27 08:29:20;;;;;;;;;15.50;14.50;;;;;19.91;32.11;102805.34;5080671;27;51160;-50
2022/01/27 08:31:59;;;;;;;;;17.25;14.75;;;;;19.86;32.03;102806.69;5079793;27;52920;-46
2022/01/27 08:34:37;;;;;;;;;15.75;13.00;;;;;19.83;32.03;102817.19;5080013;27;51402;-46
2022/01/27 08:37:06;;;;;;;;;18.50;16.25;;;;;19.78;31.91;102816.84;5080234;27;51115;-46
2022/01/27 08:39:32;;;;;;;;;16.75;15.25;;;;;19.74;32.11;102815.47;5080288;27;51109;-49
2022/01/27 08:41:58;;;;;;;;;15.25;14.75;;;;;19.71;32.36;102804.81;5079735;27;50934;-47
2022/01/27 08:44:23;;;;;;;;;16.75;11.75;;;;;19.68;32.00;102818.88;5080270;27;51015;-47
2022/01/27 08:46:49;;;;;;;;;18.25;16.75;;;;;19.63;32.28;102813.91;5080085;28;50991;-47
2022/01/27 08:49:17;;;;;;;;;20.00;17.25;;;;;19.60;32.16;102812.34;5080163;27;50913;-48
2022/01/27 08:51:43;;;;;;;;;19.50;15.00;;;;;19.57;32.35;102806.31;5079722;27;51855;-46
2022/01/27 08:54:08;;;;;;;;;21.25;16.25;;;;;19.55;32.23;102814.75;5079746;27;51026;-49
2022/01/27 08:56:34;;;;;;;;;18.00;14.25;;;;;19.51;32.20;102807.84;5080066;27;51462;-48
2022/01/27 08:58:59;;;;;;;;;16.50;14.25;;;;;19.49;32.14;102803.53;5080249;27;50898;-47
2022/01/27 09:01:26;;;;;;;;;17.75;15.50;;;;;19.46;32.25;102803.84;5078450;28;52645;-47
2022/01/27 09:03:53;;;;;;;;;14.75;14.25;;;;;19.43;32.24;102799.56;5079107;27;50963;-46
2022/01/27 09:06:19;;;;;;;;;17.00;16.50;;;;;19.42;32.16;102788.75;5080017;27;50839;-49
2022/01/27 09:08:48;;;;;;;;;16.75;14.75;;;;;19.40;32.40;102799.91;5080248;28;50935;-47
2022/01/27 09:11:14;;;;;;;;;16.00;13.75;;;;;19.40;32.38;102788.06;5080148;27;52833;-46
2022/01/27 09:13:41;;;;;;;;;14.00;14.00;;;;;19.43;32.30;102791.31;5080274;27;51326;-47
2022/01/27 09:16:07;;;;;;;;;14.75;12.75;;;;;19.50;32.44;102783.28;5079949;27;50944;-47
2022/01/27 09:18:33;;;;;;;;;17.25;14.00;;;;;19.58;32.50;102789.66;5079972;27;50947;-50
2022/01/27 09:21:01;;;;;;;;;14.25;14.25;;;;;19.68;32.16;102780.38;5079685;27;52885;-46
2022/01/27 09:23:27;;;;;;;;;16.00;12.75;;;;;19.75;32.23;102781.44;5079505;27;51405;-46
2022/01/27 09:25:56;;;;;;;;;13.75;12.25;;;;;19.83;32.05;102786.94;5078263;27;51058;-46
2022/01/27 09:28:22;;;;;;;;;16.50;14.00;;;;;19.89;32.14;102787.09;5059939;28;51216;-46
2022/01/27 09:30:47;;;;;;;;;16.75;12.00;;;;;19.97;31.96;102786.25;5059518;28;51906;-47
2022/01/27 09:33:13;;;;;;;;;15.25;11.75;;;;;20.03;32.03;102780.06;5058096;28;51007;-49
2022/01/27 09:35:39;;;;;;;;;16.25;12.25;;;;;20.09;31.97;102778.50;5059580;28;50911;-45
2022/01/27 09:38:05;;;;;;;;;17.50;12.50;;;;;20.15;31.60;102783.31;5059654;28;50945;-48
2022/01/27 09:40:33;;;;;;;;;13.00;11.25;;;;;20.22;31.74;102780.72;5058565;28;52697;-47
2022/01/27 09:43:00;;;;;;;;;15.75;14.00;;;;;20.27;31.63;102776.41;5058850;28;51245;-46
2022/01/27 09:45:26;;;;;;;;;13.50;11.25;;;;;20.33;31.41;102781.25;5059024;28;51032;-47
2022/01/27 09:47:56;;;;;;;;;9.25;8.50;;;;;20.38;31.77;102783.44;5059136;28;50907;-49
2022/01/27 09:50:37;;;;;;;;;13.75;11.50;;;;;20.44;31.60;102780.03;5058732;28;51702;-48
2022/01/27 09:53:03;;;;;;;;;8.00;8.00;;;;;20.49;31.37;102777.59;5058809;28;51406;-47
2022/01/27 09:55:28;;;;;;;;;12.00;10.00;;;;;20.54;31.32;102777.94;5058967;28;51009;-47
2022/01/27 09:57:54;;;;;;;;;12.50;11.25;;;;;20.59;31.33;102774.66;5059030;28;51027;-48
2022/01/27 10:00:22;;;;;;;;;17.25;9.75;;;;;20.64;31.33;102775.00;5058685;28;51666;-46
2022/01/27 10:03:07;;;;;;;;;10.00;9.00;;;;;20.69;31.42;102764.31;5058772;28;51238;-47
2022/01/27 10:05:33;;;;;;;;;14.25;11.50;;;;;20.72;31.07;102767.53;5059173;28;51019;-46
2022/01/27 10:08:08;;;;;;;;;16.00;11.25;;;;;20.78;31.48;102773.41;5059366;28;51051;-47
2022/01/27 10:10:39;;;;;;;;;10.00;10.00;;;;;20.81;30.93;102767.53;5058966;28;51911;-48
2022/01/27 10:13:07;;;;;;;;;13.50;12.00;;;;;20.87;31.21;102761.31;5058555;28;51104;-49
2022/01/27 10:15:37;;;;;;;;;15.00;10.25;;;;;20.91;31.35;102773.69;5058861;28;50996;-49
2022/01/27 10:18:14;;;;;;;;;11.75;10.00;;;;;20.95;31.17;102764.03;5058798;28;50859;-50
2022/01/27 10:20:45;;;;;;;;;13.25;10.75;;;;;21.00;31.25;102772.59;5057959;28;52777;-46
2022/01/27 10:23:15;;;;;;;;;14.00;12.25;;;;;21.05;31.44;102772.94;5058542;28;50867;-46
2022/01/27 10:25:52;;;;;;;;;10.00;8.50;;;;;21.10;31.25;102784.25;5058659;28;50933;-47
2022/01/27 10:28:28;;;;;;;;;12.00;8.25;;;;;21.18;31.13;102781.47;5018537;28;51260;-47
2022/01/27 10:31:05;;;;;;;;;10.00;10.00;;;;;21.25;31.03;102781.59;5017009;28;51871;-46
2022/01/27 10:33:50;;;;;;;;;11.25;9.00;;;;;21.31;30.97;102780.91;5018216;28;51052;-46
2022/01/27 10:36:28;;;;;;;;;10.25;10.00;;;;;21.35;30.41;102779.50;5018313;28;50924;-46
2022/01/27 10:38:59;;;;;;;;;12.75;12.00;;;;;21.37;30.84;102773.81;5018892;28;51031;-47
2022/01/27 10:41:26;;;;;;;;;13.50;11.25;;;;;21.41;30.52;102766.91;5018026;28;52004;-49
2022/01/27 10:44:10;;;;;;;;;16.25;12.00;;;;;21.43;30.86;102768.44;5017297;28;50945;-47
2022/01/27 10:46:39;;;;;;;;;9.75;9.75;;;;;21.48;31.03;102757.72;5017600;28;50921;-49
2022/01/27 10:49:18;;;;;;;;;11.00;9.00;;;;;21.54;30.84;102765.25;5017066;28;51206;-48
2022/01/27 10:51:51;;;;;;;;;11.50;10.00;;;;;21.62;30.72;102761.56;5017473;28;52938;-48
2022/01/27 10:54:41;;;;;;;;;13.25;11.50;;;;;21.69;30.52;102761.72;5017382;28;50956;-46
2022/01/27 10:57:09;;;;;;;;;12.25;11.25;;;;;21.72;30.33;102759.44;5017502;28;51060;-47
2022/01/27 10:59:35;;;;;;;;;11.75;10.50;;;;;21.72;30.52;102764.94;5018144;28;51172;-50
2022/01/27 11:02:05;;;;;;;;;11.50;10.00;;;;;21.69;30.46;102757.03;5017602;28;51923;-48
2022/01/27 11:04:37;;;;;;;;;13.50;10.00;;;;;21.67;30.95;102758.25;5016340;28;51050;-46
2022/01/27 11:07:05;;;;;;;;;10.75;9.00;;;;;21.63;30.37;102766.03;5017432;28;51093;-46
2022/01/27 11:09:38;;;;;;;;;12.75;11.75;;;;;21.59;30.30;102762.81;5017651;28;50893;-47
2022/01/27 11:12:12;;;;;;;;;19.25;11.50;;;;;21.54;30.92;102765.25;5017247;28;52391;-47
2022/01/27 11:14:38;;;;;;;;;9.00;8.75;;;;;21.50;30.91;102768.56;5017751;28;50991;-48
2022/01/27 11:17:15;;;;;;;;;13.75;11.25;;;;;21.45;30.78;102771.84;5017258;28;51145;-48
2022/01/27 11:20:00;;;;;;;;;12.00;9.75;;;;;21.40;30.80;102765.19;5037291;28;50920;-46
2022/01/27 11:27:43;;;;;;;;;12.50;10.75;;;;;21.24;31.34;102768.84;5037213;28;50995;-46
2022/01/27 11:30:31;;;;;;;;;13.25;10.00;;;;;21.22;31.07;102765.44;5037310;28;50865;-45
2022/01/27 11:33:06;;;;;;;;;19.00;14.50;;;;;21.18;31.31;102756.66;5019258;28;52705;-44
2022/01/27 11:35:32;;;;;;;;;13.25;9.75;;;;;21.16;31.80;102747.72;5037025;28;51298;-48
2022/01/27 11:38:04;;;;;;;;;16.50;13.00;;;;;21.15;31.31;102745.13;5037343;28;51048;-49
2022/01/27 11:40:43;;;;;;;;;13.25;10.00;;;;;21.12;31.65;102748.25;5037302;28;50902;-48
2022/01/27 11:43:14;;;;;;;;;15.25;12.00;;;;;21.09;31.80;102743.97;5036480;28;51828;-48
2022/01/27 11:45:41;;;;;;;;;11.75;11.50;;;;;21.07;31.53;102737.78;5037007;28;51366;-48
2022/01/27 11:48:14;;;;;;;;;18.25;12.50;;;;;21.06;31.64;102730.56;5037051;28;50962;-50
2022/01/27 11:51:13;;;;;;;;;13.75;11.50;;;;;21.03;31.87;102733.66;5037218;28;50938;-47
2022/01/27 11:53:48;;;;;;;;;11.25;9.50;;;;;21.00;31.79;102723.88;5036256;28;52406;-47